createdAt,value
2022-12-29T00:02:18.179Z,59.20
2022-12-29T00:04:44.721Z,59.06
2022-12-29T00:07:11.270Z,58.38
2022-12-29T00:09:37.933Z,58.96
2022-12-29T00:12:04.963Z,58.81
2022-12-29T00:14:50.073Z,59.06
2022-12-29T00:17:16.503Z,58.67
2022-12-29T00:20:03.369Z,58.61
2022-12-29T00:22:48.619Z,58.38
2022-12-29T00:25:34.038Z,57.88
2022-12-29T00:28:19.116Z,57.80
2022-12-29T00:31:04.476Z,58.28
2022-12-29T00:33:50.121Z,57.88
2022-12-29T00:36:21.104Z,57.55
2022-12-29T00:39:17.416Z,57.23
2022-12-29T00:42:03.549Z,57.48
2022-12-29T00:44:30.609Z,57.41
2022-12-29T00:46:57.105Z,57.79
2022-12-29T00:49:32.971Z,57.67
2022-12-29T00:52:05.522Z,57.87
2022-12-29T00:54:33.700Z,57.77
2022-12-29T00:57:00.811Z,57.46
2022-12-29T00:59:27.364Z,56.89
2022-12-29T01:01:54.710Z,56.87
2022-12-29T01:04:22.172Z,57.05
2022-12-29T01:06:49.310Z,57.02
2022-12-29T01:09:34.739Z,56.77
2022-12-29T01:12:01.170Z,56.14
2022-12-29T01:14:27.738Z,56.61
2022-12-29T01:16:54.709Z,56.19
2022-12-29T01:19:21.519Z,55.82
2022-12-29T01:21:49.004Z,55.67
2022-12-29T01:24:19.471Z,56.19
2022-12-29T01:26:47.087Z,55.78
2022-12-29T01:29:13.900Z,56.25
2022-12-29T01:31:40.712Z,55.87
2022-12-29T01:34:09.110Z,56.05
2022-12-29T01:36:35.545Z,56.20
2022-12-29T01:39:02.615Z,55.64
2022-12-29T01:41:29.906Z,55.99
2022-12-29T01:43:57.654Z,56.65
2022-12-29T01:46:27.049Z,55.39
2022-12-29T01:48:55.731Z,55.45
2022-12-29T01:51:24.061Z,56.21
2022-12-29T01:53:50.874Z,56.76
2022-12-29T01:56:19.379Z,56.17
2022-12-29T01:58:47.332Z,56.83
2022-12-29T02:01:14.432Z,57.17
2022-12-29T02:03:41.140Z,56.89
2022-12-29T02:06:23.495Z,56.72
2022-12-29T02:08:51.423Z,56.06
2022-12-29T02:11:18.077Z,55.61
2022-12-29T02:13:44.835Z,55.48
2022-12-29T02:16:11.252Z,56.34
2022-12-29T02:18:57.014Z,56.26
2022-12-29T02:21:35.663Z,55.73
2022-12-29T02:24:17.509Z,56.18
2022-12-29T02:26:51.241Z,55.93
2022-12-29T02:29:33.264Z,55.62
2022-12-29T02:32:02.437Z,55.40
2022-12-29T02:34:48.399Z,55.03
2022-12-29T02:37:17.973Z,55.91
2022-12-29T02:39:51.700Z,55.13
2022-12-29T02:42:25.569Z,55.39
2022-12-29T02:44:57.061Z,55.22
2022-12-29T02:47:29.358Z,54.71
2022-12-29T02:50:03.096Z,54.88
2022-12-29T02:52:38.561Z,55.10
2022-12-29T02:55:05.442Z,55.55
2022-12-29T02:57:34.113Z,54.98
2022-12-29T03:00:04.334Z,55.39
2022-12-29T03:02:34.112Z,55.17
2022-12-29T03:05:06.873Z,54.83
2022-12-29T03:08:02.227Z,55.60
2022-12-29T03:10:40.962Z,55.88
2022-12-29T03:13:35.440Z,55.55
2022-12-29T03:16:06.662Z,56.56
2022-12-29T03:18:43.250Z,56.73
2022-12-29T03:21:15.658Z,56.51
2022-12-29T03:23:44.831Z,56.06
2022-12-29T03:26:12.544Z,56.22
2022-12-29T03:28:43.893Z,55.94
2022-12-29T03:31:15.798Z,55.52
2022-12-29T03:33:43.610Z,55.48
2022-12-29T03:36:12.967Z,56.46
2022-12-29T03:38:47.285Z,55.97
2022-12-29T03:41:17.102Z,56.15
2022-12-29T03:43:44.974Z,55.58
2022-12-29T03:46:11.890Z,56.01
2022-12-29T03:48:40.869Z,55.67
2022-12-29T03:51:08.418Z,55.54
2022-12-29T03:53:34.953Z,54.85
2022-12-29T03:56:02.389Z,55.48
2022-12-29T03:58:29.385Z,55.26
2022-12-29T04:01:01.843Z,55.77
2022-12-29T04:03:30.669Z,54.93
2022-12-29T04:05:57.120Z,55.58
2022-12-29T04:08:26.393Z,55.73
2022-12-29T04:10:52.933Z,55.79
2022-12-29T04:13:22.158Z,56.58
2022-12-29T04:15:49.380Z,57.00
2022-12-29T04:18:17.046Z,57.04
2022-12-29T04:21:00.502Z,57.23
2022-12-29T04:23:27.989Z,57.60
2022-12-29T04:25:54.813Z,56.99
2022-12-29T04:28:21.233Z,57.69
2022-12-29T04:30:55.220Z,57.94
2022-12-29T04:33:27.891Z,58.34
2022-12-29T04:35:55.340Z,58.76
2022-12-29T04:38:23.649Z,58.58
2022-12-29T04:40:50.614Z,57.97
2022-12-29T04:43:20.278Z,57.37
2022-12-29T04:46:13.383Z,56.64
2022-12-29T04:48:49.425Z,57.31
2022-12-29T04:51:39.048Z,56.05
2022-12-29T04:54:08.200Z,57.11
2022-12-29T04:56:35.425Z,57.42
2022-12-29T04:59:02.361Z,58.28
2022-12-29T05:01:28.868Z,57.87
2022-12-29T05:03:55.457Z,58.55
2022-12-29T05:06:24.067Z,58.57
2022-12-29T05:08:50.475Z,58.21
2022-12-29T05:11:16.979Z,58.21
2022-12-29T05:13:48.608Z,58.08
2022-12-29T05:16:16.805Z,57.45
2022-12-29T05:18:44.113Z,57.91
2022-12-29T05:21:10.912Z,57.84
2022-12-29T05:23:38.940Z,57.84
2022-12-29T05:26:06.444Z,57.72
2022-12-29T05:29:11.110Z,57.93
2022-12-29T05:31:37.685Z,58.18
2022-12-29T05:34:06.581Z,58.86
2022-12-29T05:36:37.748Z,59.30
2022-12-29T05:39:05.203Z,58.81
2022-12-29T05:41:32.844Z,59.02
2022-12-29T05:43:59.966Z,58.01
2022-12-29T05:46:44.441Z,58.50
2022-12-29T05:49:17.157Z,58.67
2022-12-29T05:51:59.886Z,58.14
2022-12-29T05:54:28.649Z,58.27
2022-12-29T05:56:56.160Z,58.23
2022-12-29T05:59:22.741Z,58.31
2022-12-29T06:01:50.301Z,58.13
2022-12-29T06:04:17.843Z,57.77
2022-12-29T06:06:44.494Z,58.46
2022-12-29T06:09:19.660Z,58.23
2022-12-29T06:11:46.068Z,58.17
2022-12-29T06:14:12.585Z,58.13
2022-12-29T06:16:39.226Z,57.85
2022-12-29T06:19:09.384Z,57.55
2022-12-29T06:21:36.116Z,58.09
2022-12-29T06:24:02.639Z,58.58
2022-12-29T06:26:31.836Z,58.66
2022-12-29T06:28:58.542Z,58.27
2022-12-29T06:31:25.103Z,58.93
2022-12-29T06:33:51.595Z,58.97
2022-12-29T06:36:18.077Z,58.65
2022-12-29T06:38:44.658Z,59.05
2022-12-29T06:41:11.199Z,58.78
2022-12-29T06:43:56.007Z,59.15
2022-12-29T06:46:29.207Z,58.96
2022-12-29T06:48:55.743Z,59.39
2022-12-29T06:51:22.201Z,59.22
2022-12-29T06:53:48.633Z,59.38
2022-12-29T06:56:15.348Z,59.12
2022-12-29T06:58:41.803Z,58.77
2022-12-29T07:01:08.640Z,59.24
2022-12-29T07:03:35.115Z,58.79
2022-12-29T07:06:01.627Z,59.02
2022-12-29T07:08:28.069Z,59.51
2022-12-29T07:10:54.523Z,59.21
2022-12-29T07:13:21.009Z,58.85
2022-12-29T07:15:47.503Z,58.69
2022-12-29T07:18:20.176Z,58.60
2022-12-29T07:20:46.723Z,59.17
2022-12-29T07:23:13.144Z,59.41
2022-12-29T07:25:43.972Z,59.95
2022-12-29T07:28:10.391Z,59.54
2022-12-29T07:30:37.599Z,59.31
2022-12-29T07:33:04.459Z,59.81
2022-12-29T07:35:34.959Z,59.54
2022-12-29T07:38:01.501Z,59.47
2022-12-29T07:40:27.986Z,58.72
2022-12-29T07:42:54.568Z,58.68
2022-12-29T07:45:30.723Z,59.00
2022-12-29T07:48:09.287Z,58.89
2022-12-29T07:50:36.252Z,58.14
2022-12-29T07:53:03.067Z,58.68
2022-12-29T07:55:29.788Z,57.95
2022-12-29T07:57:57.138Z,58.31
2022-12-29T08:00:23.719Z,58.33
2022-12-29T08:02:51.772Z,57.40
2022-12-29T08:05:18.966Z,57.26
2022-12-29T08:07:45.927Z,57.01
2022-12-29T08:10:12.779Z,56.69
2022-12-29T08:12:39.875Z,57.22
2022-12-29T08:15:07.413Z,56.52
2022-12-29T08:17:34.104Z,56.90
2022-12-29T08:20:00.788Z,56.28
2022-12-29T08:22:27.264Z,56.93
2022-12-29T08:24:53.831Z,56.52
2022-12-29T08:27:20.996Z,56.89
2022-12-29T08:29:48.209Z,56.81
2022-12-29T08:32:14.678Z,56.74
2022-12-29T08:34:41.188Z,56.47
2022-12-29T08:37:07.612Z,56.93
2022-12-29T08:39:34.697Z,56.77
2022-12-29T08:42:01.096Z,56.65
2022-12-29T08:44:27.554Z,56.88
2022-12-29T08:46:54.110Z,57.27
2022-12-29T08:49:20.602Z,57.46
2022-12-29T08:51:47.084Z,57.94
2022-12-29T08:54:13.825Z,57.60
2022-12-29T08:56:40.375Z,57.88
2022-12-29T08:59:07.011Z,58.16
2022-12-29T09:01:34.653Z,57.99
2022-12-29T09:04:17.581Z,58.53
2022-12-29T09:06:44.956Z,59.13
2022-12-29T09:09:11.963Z,58.84
2022-12-29T09:11:38.406Z,58.84
2022-12-29T09:14:05.181Z,58.76
2022-12-29T09:16:32.196Z,59.20
2022-12-29T09:18:58.847Z,59.88
2022-12-29T09:21:25.288Z,59.28
2022-12-29T09:23:51.769Z,59.68
2022-12-29T09:26:18.260Z,60.22
2022-12-29T09:28:45.357Z,60.23
2022-12-29T09:31:12.057Z,60.03
2022-12-29T09:33:38.949Z,60.22
2022-12-29T09:36:05.697Z,60.47
2022-12-29T09:38:32.248Z,60.04
2022-12-29T09:41:21.900Z,60.02
2022-12-29T09:43:57.277Z,60.19
2022-12-29T09:46:28.719Z,60.55
2022-12-29T09:49:14.018Z,59.03
2022-12-29T09:51:44.289Z,59.34
2022-12-29T09:54:30.942Z,60.11
2022-12-29T09:56:58.281Z,59.61
2022-12-29T09:59:27.778Z,59.83
2022-12-29T10:01:54.440Z,59.70
2022-12-29T10:04:21.149Z,60.30
2022-12-29T10:07:28.678Z,60.04
2022-12-29T10:10:02.628Z,60.65
2022-12-29T10:12:51.348Z,60.42
2022-12-29T10:15:18.014Z,60.89
2022-12-29T10:17:53.701Z,60.58
2022-12-29T10:20:29.606Z,60.48
2022-12-29T10:23:14.816Z,60.77
2022-12-29T10:25:42.725Z,60.40
2022-12-29T10:28:20.019Z,60.54
2022-12-29T10:30:48.114Z,60.85
2022-12-29T10:33:19.328Z,61.02
2022-12-29T10:35:47.395Z,61.15
2022-12-29T10:38:16.720Z,61.46
2022-12-29T10:41:01.892Z,61.68
2022-12-29T10:43:29.532Z,61.23
2022-12-29T10:45:58.485Z,60.96
2022-12-29T10:48:31.833Z,61.21
2022-12-29T10:51:02.249Z,61.61
2022-12-29T10:53:36.120Z,61.68
2022-12-29T10:56:05.657Z,62.45
2022-12-29T10:58:33.125Z,61.90
2022-12-29T11:01:00.527Z,62.43
2022-12-29T11:03:48.831Z,64.13
2022-12-29T11:06:18.233Z,65.69
2022-12-29T11:09:03.349Z,67.82
2022-12-29T11:11:36.830Z,68.64
2022-12-29T11:14:11.772Z,69.48
2022-12-29T11:16:38.366Z,68.45
2022-12-29T11:19:04.860Z,68.79
2022-12-29T11:21:33.021Z,69.14
2022-12-29T11:24:06.669Z,69.21
2022-12-29T11:26:34.987Z,68.43
2022-12-29T11:29:05.035Z,68.06
2022-12-29T11:31:31.691Z,67.82
2022-12-29T11:33:58.172Z,67.49
2022-12-29T11:36:25.424Z,67.50
2022-12-29T11:38:53.674Z,66.92
2022-12-29T11:41:22.124Z,67.13
2022-12-29T11:43:49.145Z,67.70
2022-12-29T11:46:17.588Z,67.66
2022-12-29T11:48:44.187Z,67.36
2022-12-29T11:51:12.383Z,67.43
2022-12-29T11:53:38.791Z,67.40
2022-12-29T11:56:07.123Z,67.25
2022-12-29T11:58:35.446Z,68.89
2022-12-29T12:01:14.402Z,68.26
2022-12-29T12:03:45.190Z,68.02
2022-12-29T12:06:13.553Z,69.48
2022-12-29T12:08:42.886Z,68.35
2022-12-29T12:11:09.270Z,68.74
2022-12-29T12:13:38.384Z,68.94
2022-12-29T12:16:22.434Z,67.84
2022-12-29T12:18:58.084Z,68.67
2022-12-29T12:21:45.381Z,68.06
2022-12-29T12:24:37.088Z,68.09
2022-12-29T12:27:17.352Z,67.92
2022-12-29T12:29:57.815Z,67.63
2022-12-29T12:32:28.229Z,67.36
2022-12-29T12:34:54.728Z,67.82
2022-12-29T12:37:37.844Z,68.16
2022-12-29T12:40:16.556Z,68.44
2022-12-29T12:42:52.394Z,69.18
2022-12-29T12:45:18.840Z,68.59
2022-12-29T12:47:52.710Z,69.17
2022-12-29T12:50:30.424Z,69.35
2022-12-29T12:52:59.886Z,70.32
2022-12-29T12:55:39.630Z,70.46
2022-12-29T12:58:18.218Z,71.77
2022-12-29T13:01:03.502Z,69.93
2022-12-29T13:03:48.791Z,68.98
2022-12-29T13:06:33.862Z,69.84
2022-12-29T13:09:19.011Z,68.77
2022-12-29T13:12:04.208Z,69.55
2022-12-29T13:14:30.595Z,69.37
2022-12-29T13:16:57.029Z,69.60
2022-12-29T13:19:26.401Z,68.54
2022-12-29T13:22:01.866Z,69.10
2022-12-29T13:24:51.571Z,69.18
2022-12-29T13:27:30.787Z,68.63
2022-12-29T13:30:11.556Z,68.49
2022-12-29T13:32:38.425Z,68.93
2022-12-29T13:35:07.951Z,68.80
2022-12-29T13:37:37.138Z,67.93
2022-12-29T13:40:16.204Z,68.21
2022-12-29T13:42:42.999Z,67.85
2022-12-29T13:45:16.107Z,67.51
2022-12-29T13:47:45.233Z,67.33
2022-12-29T13:50:17.759Z,68.05
2022-12-29T13:53:03.025Z,68.53
2022-12-29T13:55:46.419Z,68.41
2022-12-29T13:58:18.969Z,68.63
2022-12-29T14:01:00.995Z,68.09
2022-12-29T14:03:43.041Z,67.73
2022-12-29T14:06:15.876Z,67.38
2022-12-29T14:08:42.458Z,68.19
2022-12-29T14:11:11.067Z,67.39
2022-12-29T14:13:39.636Z,67.10
2022-12-29T14:16:06.755Z,66.55
2022-12-29T14:18:35.036Z,66.92
2022-12-29T14:21:09.787Z,66.98
2022-12-29T14:23:43.168Z,66.90
2022-12-29T14:26:18.399Z,67.48
2022-12-29T14:28:46.949Z,67.18
2022-12-29T14:31:16.487Z,67.61
2022-12-29T14:34:02.888Z,67.46
2022-12-29T14:36:37.104Z,66.60
2022-12-29T14:39:04.371Z,66.28
2022-12-29T14:41:36.153Z,66.58
2022-12-29T14:44:18.098Z,65.82
2022-12-29T14:46:46.977Z,66.66
2022-12-29T14:49:18.824Z,66.21
2022-12-29T14:51:46.230Z,66.16
2022-12-29T14:54:31.664Z,66.09
2022-12-29T14:57:00.015Z,66.00
2022-12-29T14:59:27.318Z,65.63
2022-12-29T15:01:55.788Z,65.84
2022-12-29T15:04:23.879Z,65.56
2022-12-29T15:06:50.746Z,65.56
2022-12-29T15:09:30.582Z,65.30
2022-12-29T15:12:01.561Z,65.24
2022-12-29T15:14:39.089Z,66.01
2022-12-29T15:17:11.452Z,65.17
2022-12-29T15:19:38.053Z,65.73
2022-12-29T15:22:04.550Z,66.20
2022-12-29T15:24:31.013Z,65.35
2022-12-29T15:26:57.457Z,65.41
2022-12-29T15:29:50.407Z,65.31
2022-12-29T15:32:21.726Z,65.67
2022-12-29T15:34:50.055Z,65.00
2022-12-29T15:37:24.494Z,65.79
2022-12-29T15:39:51.390Z,65.65
2022-12-29T15:42:32.916Z,65.58
2022-12-29T15:45:10.293Z,65.77
2022-12-29T15:47:37.715Z,65.63
2022-12-29T15:50:06.000Z,66.17
2022-12-29T15:52:33.542Z,66.22
2022-12-29T15:55:01.470Z,65.99
2022-12-29T15:57:29.321Z,65.66
2022-12-29T15:59:56.313Z,65.95
2022-12-29T16:02:24.447Z,65.69
2022-12-29T16:05:16.699Z,65.55
2022-12-29T16:07:42.051Z,65.08
2022-12-29T16:10:31.316Z,65.45
2022-12-29T16:13:06.275Z,66.13
2022-12-29T16:15:32.851Z,66.15
2022-12-29T16:17:59.462Z,65.32
2022-12-29T16:20:32.633Z,65.51
2022-12-29T16:23:00.498Z,66.28
2022-12-29T16:25:32.508Z,65.39
2022-12-29T16:28:00.010Z,65.62
2022-12-29T16:30:33.506Z,64.86
2022-12-29T16:33:02.142Z,64.70
2022-12-29T16:35:30.996Z,64.46
2022-12-29T16:38:15.818Z,65.28
2022-12-29T16:41:05.600Z,64.99
2022-12-29T16:43:34.136Z,64.56
2022-12-29T16:46:00.630Z,64.73
2022-12-29T16:48:28.718Z,64.96
2022-12-29T16:51:12.986Z,65.69
2022-12-29T16:53:40.710Z,65.01
2022-12-29T16:56:15.546Z,65.11
2022-12-29T16:58:46.430Z,65.64
2022-12-29T17:01:22.242Z,65.53
2022-12-29T17:03:51.249Z,65.09
2022-12-29T17:06:19.417Z,65.12
2022-12-29T17:08:46.497Z,64.67
2022-12-29T17:11:55.902Z,64.98
2022-12-29T17:14:28.709Z,65.28
2022-12-29T17:16:55.188Z,65.18
2022-12-29T17:19:27.454Z,65.49
2022-12-29T17:21:53.894Z,65.26
2022-12-29T17:24:20.537Z,65.47
2022-12-29T17:26:50.147Z,65.71
2022-12-29T17:29:36.833Z,65.83
2022-12-29T17:32:04.524Z,65.89
2022-12-29T17:34:31.708Z,65.50
2022-12-29T17:36:58.249Z,65.20
2022-12-29T17:39:24.683Z,64.86
2022-12-29T17:41:52.254Z,64.54
2022-12-29T17:44:19.838Z,65.13
2022-12-29T17:46:47.198Z,64.89
2022-12-29T17:49:14.690Z,64.55
2022-12-29T17:51:42.652Z,64.12
2022-12-29T17:54:22.292Z,64.67
2022-12-29T17:56:48.919Z,65.00
2022-12-29T17:59:16.058Z,64.36
2022-12-29T18:01:45.554Z,64.33
2022-12-29T18:04:17.153Z,64.67
2022-12-29T18:06:44.198Z,64.54
2022-12-29T18:09:10.830Z,64.67
2022-12-29T18:11:41.813Z,64.37
2022-12-29T18:14:14.819Z,64.24
2022-12-29T18:16:41.346Z,64.18
2022-12-29T18:19:07.798Z,64.53
2022-12-29T18:21:34.234Z,64.79
2022-12-29T18:24:00.728Z,64.67
2022-12-29T18:26:29.112Z,64.88
2022-12-29T18:28:56.581Z,64.61
2022-12-29T18:31:26.989Z,64.74
2022-12-29T18:33:54.350Z,65.61
2022-12-29T18:36:21.419Z,65.30
2022-12-29T18:38:48.179Z,65.75
2022-12-29T18:41:16.317Z,65.37
2022-12-29T18:43:43.237Z,65.86
2022-12-29T18:46:10.033Z,65.78
2022-12-29T18:48:36.463Z,65.68
2022-12-29T18:51:02.874Z,65.58
2022-12-29T18:53:29.468Z,66.03
2022-12-29T18:55:57.583Z,65.59
2022-12-29T18:58:29.198Z,66.29
2022-12-29T19:00:59.042Z,65.29
2022-12-29T19:03:25.602Z,65.35
2022-12-29T19:05:52.249Z,65.54
2022-12-29T19:08:18.710Z,65.65
2022-12-29T19:10:45.796Z,65.71
2022-12-29T19:13:16.755Z,66.68
2022-12-29T19:15:44.026Z,65.95
2022-12-29T19:20:58.775Z,67.01
2022-12-29T19:23:26.567Z,66.11
2022-12-29T19:25:53.944Z,66.69
2022-12-29T19:28:22.119Z,66.27
2022-12-29T19:30:52.234Z,66.33
2022-12-29T19:33:21.030Z,66.84
2022-12-29T19:35:47.975Z,65.60
2022-12-29T19:38:14.401Z,65.29
2022-12-29T19:40:45.722Z,66.10
2022-12-29T19:43:12.711Z,66.22
2022-12-29T19:45:40.509Z,65.94
2022-12-29T19:48:17.542Z,65.82
2022-12-29T19:50:44.237Z,65.26
2022-12-29T19:53:11.305Z,65.33
2022-12-29T19:55:37.969Z,65.98
2022-12-29T19:58:04.780Z,65.63
2022-12-29T20:00:31.274Z,65.62
2022-12-29T20:02:57.990Z,65.51
2022-12-29T20:05:24.526Z,66.05
2022-12-29T20:07:51.002Z,66.18
2022-12-29T20:10:17.481Z,66.00
2022-12-29T20:12:44.018Z,66.36
2022-12-29T20:15:11.077Z,66.66
2022-12-29T20:18:11.854Z,66.37
2022-12-29T20:20:24.731Z,66.04
2022-12-29T20:22:51.202Z,66.04
2022-12-29T20:25:44.265Z,65.96
2022-12-29T20:28:04.748Z,66.48
2022-12-29T20:30:31.761Z,67.18
2022-12-29T20:32:59.545Z,66.93
2022-12-29T20:35:28.571Z,67.87
2022-12-29T20:37:54.977Z,68.34
2022-12-29T20:40:21.433Z,68.81
2022-12-29T20:42:47.959Z,69.44
2022-12-29T20:45:14.377Z,67.93
2022-12-29T20:47:40.811Z,68.30
2022-12-29T20:50:07.408Z,68.51
2022-12-29T20:52:33.830Z,68.83
2022-12-29T20:55:00.282Z,68.18
2022-12-29T20:57:26.773Z,68.78
2022-12-29T20:59:53.796Z,69.55
2022-12-29T21:02:23.545Z,69.18
2022-12-29T21:05:23.159Z,69.28
2022-12-29T21:07:36.511Z,69.79
2022-12-29T21:10:02.981Z,69.54
2022-12-29T21:12:29.498Z,69.08
2022-12-29T21:14:55.987Z,69.45
2022-12-29T21:17:22.466Z,69.14
2022-12-29T21:19:48.911Z,69.42
2022-12-29T21:22:15.363Z,69.90
2022-12-29T21:24:42.041Z,68.38
2022-12-29T21:27:08.489Z,68.50
2022-12-29T21:29:34.944Z,68.64
2022-12-29T21:32:06.337Z,67.95
2022-12-29T21:34:34.376Z,69.27
2022-12-29T21:37:00.856Z,69.20
2022-12-29T21:39:27.703Z,68.65
2022-12-29T21:42:00.009Z,67.96
2022-12-29T21:44:45.624Z,67.79
2022-12-29T21:47:12.116Z,69.74
2022-12-29T21:49:38.500Z,69.65
2022-12-29T21:52:05.016Z,70.91
2022-12-29T21:54:50.075Z,71.10
2022-12-29T21:57:38.486Z,71.22
2022-12-29T22:00:24.957Z,69.98
2022-12-29T22:03:16.504Z,69.42
2022-12-29T22:06:05.449Z,69.85
2022-12-29T22:08:50.834Z,70.12
2022-12-29T22:11:36.087Z,71.00
2022-12-29T22:14:02.765Z,72.03
2022-12-29T22:16:29.272Z,70.73
2022-12-29T22:18:55.794Z,70.83
2022-12-29T22:21:22.285Z,70.92
2022-12-29T22:23:48.733Z,70.69
2022-12-29T22:26:16.060Z,70.82
2022-12-29T22:28:43.355Z,70.85
2022-12-29T22:31:29.723Z,71.67
2022-12-29T22:33:57.185Z,71.87
2022-12-29T22:36:24.094Z,72.19
2022-12-29T22:38:50.526Z,72.35
2022-12-29T22:41:17.139Z,72.06
2022-12-29T22:43:43.682Z,72.78
2022-12-29T22:46:10.213Z,72.59
2022-12-29T22:48:36.900Z,71.99
2022-12-29T22:51:03.481Z,71.79
2022-12-29T22:53:30.216Z,71.09
2022-12-29T22:56:07.609Z,71.15
2022-12-29T22:58:34.425Z,71.75
2022-12-29T23:01:01.191Z,71.41
2022-12-29T23:03:27.813Z,71.74
2022-12-29T23:06:01.465Z,72.46
2022-12-29T23:08:28.762Z,71.86
2022-12-29T23:10:55.225Z,72.44
2022-12-29T23:13:21.767Z,72.20
2022-12-29T23:15:48.731Z,72.54
2022-12-29T23:18:15.981Z,72.36
2022-12-29T23:20:42.714Z,72.44
2022-12-29T23:23:09.123Z,73.12
2022-12-29T23:25:39.060Z,73.40
2022-12-29T23:28:07.491Z,72.52
2022-12-29T23:30:34.333Z,72.07
2022-12-29T23:33:00.815Z,72.50
2022-12-29T23:35:27.199Z,71.86
2022-12-29T23:37:53.907Z,71.33
2022-12-29T23:40:20.300Z,72.60
2022-12-29T23:42:46.800Z,70.94
2022-12-29T23:45:13.492Z,71.80
2022-12-29T23:47:40.024Z,72.95
2022-12-29T23:50:06.711Z,72.33
2022-12-29T23:52:33.196Z,72.92
2022-12-29T23:55:02.202Z,73.09
2022-12-29T23:57:28.748Z,72.44
2022-12-29T23:59:55.181Z,72.23
